CheckWX is a tool to help pilots better visualize weather data.  It is not intended as a substitute for an official pre-flight weather briefing.

21:36:10 UTC

KHAF METAR
Half Moon Bay Airport
Half Moon Bay, California, USA
Current

16 mins ago

KHAF 092120Z AUTO 33009KT 9SM OVC023 13/09 A3017 RMK AO2
Observed
Dec-9 @ 21:20 UTC
Wind
  • 330° at 9 KTS
Visibility
9 SM
Flight Rules
MVFR
Cloud Levels
  • Overcast at 2,300' AGL
Temperature
13°C / 55°F
Dewpoint
C / 48°F
Humidity
77%
Altimeter
30.17" Hg
Pressure
1021.72 hPa
Previous

21 mins ago

KHAF 092115Z AUTO 32007KT 9SM OVC023 14/10 A3017 RMK AO2
Observed
Dec-9 @ 21:15 UTC
Wind
  • 320° at 7 KTS
Visibility
9 SM
Flight Rules
MVFR
Cloud Levels
  • Overcast at 2,300' AGL
Temperature
14°C / 57°F
Dewpoint
10°C / 50°F
Humidity
77%
Altimeter
30.17" Hg
Pressure
1021.72 hPa
Previous

41 mins ago

KHAF 092055Z AUTO 31007KT 10SM OVC023 14/09 A3018 RMK AO2
Observed
Dec-9 @ 20:55 UTC
Wind
  • 310° at 7 KTS
Visibility
10 SM
Flight Rules
MVFR
Cloud Levels
  • Overcast at 2,300' AGL
Temperature
14°C / 57°F
Dewpoint
C / 48°F
Humidity
72%
Altimeter
30.18" Hg
Pressure
1022.02 hPa